createdAt,value
2022-08-17T00:00:43.478Z,54.87
2022-08-17T00:03:22.248Z,54.98
2022-08-17T00:05:53.759Z,55.17
2022-08-17T00:08:24.143Z,54.90
2022-08-17T00:10:54.131Z,54.93
2022-08-17T00:13:26.524Z,54.80
2022-08-17T00:16:00.617Z,54.91
2022-08-17T00:18:58.300Z,54.91
2022-08-17T00:21:25.377Z,54.56
2022-08-17T00:23:55.488Z,55.16
2022-08-17T00:26:44.397Z,54.91
2022-08-17T00:29:14.908Z,54.65
2022-08-17T00:31:51.014Z,54.71
2022-08-17T00:34:19.836Z,54.91
2022-08-17T00:36:48.331Z,54.79
2022-08-17T00:39:16.983Z,54.52
2022-08-17T00:41:45.642Z,54.55
2022-08-17T00:44:14.808Z,54.46
2022-08-17T00:46:44.862Z,54.44
2022-08-17T00:49:19.525Z,54.36
2022-08-17T00:51:53.972Z,54.44
2022-08-17T00:54:25.286Z,54.31
2022-08-17T00:56:56.370Z,54.25
2022-08-17T00:59:31.033Z,54.10
2022-08-17T01:02:00.392Z,54.19
2022-08-17T01:04:32.577Z,54.22
2022-08-17T01:07:04.766Z,54.34
2022-08-17T01:09:34.232Z,54.46
2022-08-17T01:12:02.931Z,54.23
2022-08-17T01:14:31.414Z,54.23
2022-08-17T01:17:00.894Z,54.33
2022-08-17T01:19:34.424Z,54.14
2022-08-17T01:22:10.194Z,54.16
2022-08-17T01:24:42.987Z,53.86
2022-08-17T01:27:13.557Z,53.83
2022-08-17T01:29:45.715Z,54.10
2022-08-17T01:32:14.398Z,54.35
2022-08-17T01:34:49.485Z,53.98
2022-08-17T01:37:21.813Z,53.89
2022-08-17T01:39:57.366Z,53.96
2022-08-17T01:42:30.968Z,54.06
2022-08-17T01:45:06.386Z,53.96
2022-08-17T01:47:36.012Z,54.00
2022-08-17T01:50:10.382Z,53.88
2022-08-17T01:52:39.225Z,54.08
2022-08-17T01:55:09.753Z,54.08
2022-08-17T01:57:39.092Z,54.36
2022-08-17T02:00:10.425Z,54.39
2022-08-17T02:02:39.607Z,54.00
2022-08-17T02:05:09.195Z,54.16
2022-08-17T02:08:00.036Z,54.28
2022-08-17T02:10:33.663Z,54.31
2022-08-17T02:13:03.598Z,54.35
2022-08-17T02:15:33.636Z,54.30
2022-08-17T02:18:02.743Z,54.14
2022-08-17T02:20:41.226Z,54.29
2022-08-17T02:23:13.369Z,54.30
2022-08-17T02:25:47.851Z,54.26
2022-08-17T02:28:17.480Z,54.15
2022-08-17T02:31:00.144Z,54.13
2022-08-17T02:33:42.259Z,54.47
2022-08-17T02:36:13.598Z,54.40
2022-08-17T02:38:43.261Z,54.25
2022-08-17T02:41:13.670Z,54.58
2022-08-17T02:43:42.563Z,54.32
2022-08-17T02:46:12.806Z,54.31
2022-08-17T02:48:41.409Z,54.63
2022-08-17T02:51:10.101Z,54.38
2022-08-17T02:53:38.668Z,54.34
2022-08-17T02:56:07.742Z,54.45
2022-08-17T02:58:37.350Z,54.40
2022-08-17T03:01:07.787Z,54.79
2022-08-17T03:03:36.944Z,54.58
2022-08-17T03:06:07.795Z,54.58
2022-08-17T03:08:37.601Z,54.33
2022-08-17T03:11:06.153Z,54.69
2022-08-17T03:13:34.892Z,54.63
2022-08-17T03:16:05.357Z,54.56
2022-08-17T03:18:34.085Z,54.48
2022-08-17T03:21:04.785Z,54.50
2022-08-17T03:23:34.080Z,54.73
2022-08-17T03:26:03.085Z,54.73
2022-08-17T03:28:31.801Z,54.41
2022-08-17T03:31:00.441Z,54.40
2022-08-17T03:33:30.489Z,54.42
2022-08-17T03:35:59.586Z,54.49
2022-08-17T03:38:28.233Z,54.13
2022-08-17T03:40:59.790Z,54.69
2022-08-17T03:43:31.079Z,54.42
2022-08-17T03:46:26.971Z,54.44
2022-08-17T03:49:22.699Z,54.56
2022-08-17T03:52:08.541Z,54.65
2022-08-17T03:54:54.780Z,54.94
2022-08-17T03:57:23.512Z,54.89
2022-08-17T03:59:53.028Z,54.89
2022-08-17T04:02:25.584Z,54.34
2022-08-17T04:04:55.734Z,54.63
2022-08-17T04:07:26.024Z,54.61
2022-08-17T04:09:54.914Z,54.57
2022-08-17T04:12:24.130Z,54.62
2022-08-17T04:14:54.934Z,54.82
2022-08-17T04:17:26.243Z,54.63
2022-08-17T04:19:57.032Z,54.43
2022-08-17T04:22:33.318Z,54.51
2022-08-17T04:25:06.513Z,54.36
2022-08-17T04:27:35.190Z,54.69
2022-08-17T04:30:04.563Z,54.58
2022-08-17T04:33:03.471Z,54.55
2022-08-17T04:35:24.469Z,54.51
2022-08-17T04:37:53.468Z,54.75
2022-08-17T04:40:41.397Z,54.69
2022-08-17T04:43:11.811Z,54.71
2022-08-17T04:45:55.342Z,54.65
2022-08-17T04:48:33.388Z,54.68
2022-08-17T04:51:09.878Z,54.86
2022-08-17T04:53:40.326Z,54.77
2022-08-17T04:56:11.809Z,54.61
2022-08-17T04:58:46.508Z,54.76
2022-08-17T05:01:15.466Z,54.45
2022-08-17T05:03:43.772Z,54.55
2022-08-17T05:06:13.756Z,54.74
2022-08-17T05:08:42.817Z,54.81
2022-08-17T05:11:11.684Z,54.92
2022-08-17T05:13:40.365Z,55.02
2022-08-17T05:16:10.508Z,54.76
2022-08-17T05:18:39.664Z,54.42
2022-08-17T05:21:08.661Z,54.63
2022-08-17T05:23:43.037Z,54.72
2022-08-17T05:26:25.604Z,54.83
2022-08-17T05:28:59.654Z,55.00
2022-08-17T05:31:30.129Z,55.06
2022-08-17T05:33:59.114Z,55.38
2022-08-17T05:36:37.966Z,55.65
2022-08-17T05:39:17.329Z,55.61
2022-08-17T05:41:49.382Z,55.57
2022-08-17T05:44:18.638Z,55.74
2022-08-17T05:46:51.429Z,56.34
2022-08-17T05:49:27.301Z,56.08
2022-08-17T05:52:17.153Z,56.04
2022-08-17T05:55:11.175Z,56.13
2022-08-17T05:57:57.079Z,56.17
2022-08-17T06:00:30.728Z,56.02
2022-08-17T06:03:12.131Z,56.20
2022-08-17T06:06:03.483Z,56.08
2022-08-17T06:08:39.698Z,55.99
2022-08-17T06:11:19.858Z,56.31
2022-08-17T06:14:05.233Z,56.37
2022-08-17T06:16:37.924Z,56.56
2022-08-17T06:19:14.709Z,56.34
2022-08-17T06:21:47.695Z,56.46
2022-08-17T06:24:27.600Z,56.36
2022-08-17T06:27:03.052Z,56.47
2022-08-17T06:29:41.351Z,56.65
2022-08-17T06:32:12.836Z,56.57
2022-08-17T06:34:44.551Z,56.64
2022-08-17T06:37:43.148Z,56.57
2022-08-17T06:40:38.593Z,56.56
2022-08-17T06:43:22.213Z,56.44
2022-08-17T06:45:58.290Z,56.36
2022-08-17T06:48:34.331Z,56.23
2022-08-17T06:51:07.002Z,56.41
2022-08-17T06:53:42.204Z,56.21
2022-08-17T06:56:13.012Z,56.25
2022-08-17T06:58:45.968Z,56.31
2022-08-17T07:01:18.766Z,56.76
2022-08-17T07:03:54.876Z,56.45
2022-08-17T07:06:28.918Z,56.31
2022-08-17T07:09:02.513Z,56.49
2022-08-17T07:11:37.487Z,56.47
2022-08-17T07:14:28.657Z,56.32
2022-08-17T07:16:59.593Z,56.35
2022-08-17T07:19:32.784Z,56.50
2022-08-17T07:22:10.775Z,56.71
2022-08-17T07:24:48.076Z,56.56
2022-08-17T07:27:21.411Z,56.64
2022-08-17T07:29:56.777Z,56.61
2022-08-17T07:32:28.509Z,56.30
2022-08-17T07:35:15.348Z,56.42
2022-08-17T07:37:46.687Z,56.29
2022-08-17T07:40:20.955Z,56.19
2022-08-17T07:43:22.061Z,56.12
2022-08-17T07:46:15.647Z,56.07
2022-08-17T07:48:49.764Z,55.75
2022-08-17T07:51:26.103Z,55.79
2022-08-17T07:54:13.188Z,55.65
2022-08-17T07:56:46.075Z,55.81
2022-08-17T07:59:18.184Z,55.49
2022-08-17T08:02:06.299Z,55.43
2022-08-17T08:07:30.564Z,55.85
2022-08-17T08:10:07.039Z,55.53
2022-08-17T08:12:39.670Z,55.70
2022-08-17T08:15:18.737Z,55.33
2022-08-17T08:17:53.162Z,55.40
2022-08-17T08:20:37.921Z,55.68
2022-08-17T08:23:33.500Z,55.67
2022-08-17T08:26:18.427Z,55.40
2022-08-17T08:28:56.392Z,55.33
2022-08-17T08:31:42.076Z,55.40
2022-08-17T08:34:44.497Z,55.84
2022-08-17T08:37:27.617Z,55.68
2022-08-17T08:40:12.371Z,55.56
2022-08-17T08:42:50.922Z,55.74
2022-08-17T08:45:26.399Z,55.72
2022-08-17T08:48:12.776Z,55.60
2022-08-17T08:51:13.648Z,55.57
2022-08-17T08:53:52.492Z,55.34
2022-08-17T08:56:29.316Z,55.42
2022-08-17T08:59:07.408Z,55.42
2022-08-17T09:01:45.108Z,55.52
2022-08-17T09:04:55.890Z,55.44
2022-08-17T09:07:36.680Z,55.39
2022-08-17T09:10:13.745Z,55.45
2022-08-17T09:12:49.926Z,55.53
2022-08-17T09:15:23.226Z,55.42
2022-08-17T09:19:03.326Z,55.50
2022-08-17T09:21:00.138Z,55.29
2022-08-17T09:23:35.486Z,55.75
2022-08-17T09:26:11.871Z,55.73
2022-08-17T09:28:46.270Z,55.42
2022-08-17T09:31:21.400Z,55.66
2022-08-17T09:33:51.417Z,55.31
2022-08-17T09:36:29.546Z,54.93
2022-08-17T09:39:05.028Z,55.32
2022-08-17T09:41:48.915Z,55.11
2022-08-17T09:44:29.363Z,55.30
2022-08-17T09:47:03.538Z,55.24
2022-08-17T09:49:35.031Z,55.26
2022-08-17T09:52:20.329Z,54.90
2022-08-17T09:54:52.496Z,55.04
2022-08-17T09:57:33.494Z,55.29
2022-08-17T10:00:17.278Z,55.22
2022-08-17T10:03:25.521Z,55.13
2022-08-17T10:06:01.638Z,55.22
2022-08-17T10:08:38.172Z,55.59
2022-08-17T10:11:20.214Z,55.21
2022-08-17T10:13:59.519Z,55.29
2022-08-17T10:16:37.485Z,55.45
2022-08-17T10:19:16.292Z,55.01
2022-08-17T10:22:33.001Z,55.09
2022-08-17T10:25:22.236Z,55.15
2022-08-17T10:27:59.217Z,54.68
2022-08-17T10:30:31.966Z,54.83
2022-08-17T10:33:04.017Z,54.26
2022-08-17T10:35:40.702Z,54.25
2022-08-17T10:38:46.152Z,54.30
2022-08-17T10:41:25.683Z,53.99
2022-08-17T10:44:39.722Z,54.30
2022-08-17T10:47:07.878Z,53.83
2022-08-17T10:49:38.270Z,54.15
2022-08-17T10:52:47.084Z,54.01
2022-08-17T10:55:18.086Z,54.09
2022-08-17T10:57:48.065Z,53.99
2022-08-17T11:01:04.010Z,54.05
2022-08-17T11:03:33.444Z,54.47
2022-08-17T11:06:15.453Z,54.36
2022-08-17T11:09:09.006Z,54.21
2022-08-17T11:11:52.080Z,54.46
2022-08-17T11:14:35.041Z,54.40
2022-08-17T11:17:16.698Z,54.57
2022-08-17T11:20:13.796Z,54.36
2022-08-17T11:23:10.622Z,54.49
2022-08-17T11:25:42.108Z,54.57
2022-08-17T11:28:18.054Z,54.77
2022-08-17T11:30:54.794Z,54.44
2022-08-17T11:33:58.003Z,54.64
2022-08-17T11:37:11.341Z,54.87
2022-08-17T11:40:16.585Z,54.97
2022-08-17T11:43:05.999Z,55.26
2022-08-17T11:46:03.921Z,55.37
2022-08-17T11:48:57.066Z,55.87
2022-08-17T11:52:08.512Z,55.44
2022-08-17T11:54:40.835Z,55.73
2022-08-17T11:58:01.129Z,55.22
2022-08-17T12:00:57.719Z,55.41
2022-08-17T12:03:54.341Z,55.42
2022-08-17T12:06:54.737Z,55.43
2022-08-17T12:09:26.535Z,55.56
2022-08-17T12:12:12.984Z,55.40
2022-08-17T12:17:40.555Z,55.67
2022-08-17T12:20:24.281Z,55.89
2022-08-17T12:23:04.523Z,56.00
2022-08-17T12:25:39.476Z,55.75
2022-08-17T12:28:22.934Z,55.93
2022-08-17T12:30:53.019Z,56.01
2022-08-17T12:33:28.499Z,56.04
2022-08-17T12:36:03.198Z,56.34
2022-08-17T12:38:36.323Z,56.46
2022-08-17T12:41:22.279Z,56.08
2022-08-17T12:44:02.413Z,56.49
2022-08-17T12:46:36.127Z,56.83
2022-08-17T12:49:28.130Z,56.39
2022-08-17T12:52:07.569Z,56.55
2022-08-17T12:54:46.873Z,56.35
2022-08-17T12:57:18.056Z,56.72
2022-08-17T12:59:51.754Z,56.70
2022-08-17T13:02:29.298Z,56.32
2022-08-17T13:04:59.900Z,56.22
2022-08-17T13:07:35.258Z,56.56
2022-08-17T13:10:06.333Z,56.29
2022-08-17T13:12:37.212Z,56.26
2022-08-17T13:15:06.818Z,56.48
2022-08-17T13:17:37.558Z,56.38
2022-08-17T13:20:15.981Z,56.55
2022-08-17T13:22:45.221Z,56.21
2022-08-17T13:25:18.276Z,56.75
2022-08-17T13:27:49.509Z,56.82
2022-08-17T13:30:23.966Z,56.81
2022-08-17T13:32:54.058Z,56.50
2022-08-17T13:35:36.463Z,56.54
2022-08-17T13:38:11.337Z,56.38
2022-08-17T13:40:52.047Z,56.59
2022-08-17T13:43:45.135Z,56.77
2022-08-17T13:46:21.283Z,56.86
2022-08-17T13:49:01.079Z,56.83
2022-08-17T13:51:32.686Z,56.87
2022-08-17T13:54:09.019Z,56.62
2022-08-17T13:56:52.822Z,56.65
2022-08-17T13:59:52.493Z,56.64
2022-08-17T14:02:21.127Z,56.75
2022-08-17T14:04:50.423Z,56.73
2022-08-17T14:07:29.937Z,57.25
2022-08-17T14:10:01.301Z,57.06
2022-08-17T14:12:35.207Z,56.81
2022-08-17T14:15:04.834Z,56.88
2022-08-17T14:17:38.126Z,56.92
2022-08-17T14:20:10.717Z,56.72
2022-08-17T14:22:42.299Z,56.86
2022-08-17T14:25:14.086Z,56.87
2022-08-17T14:27:52.924Z,56.71
2022-08-17T14:30:25.088Z,56.85
2022-08-17T14:32:54.745Z,57.10
2022-08-17T14:35:25.049Z,57.02
2022-08-17T14:37:54.414Z,57.58
2022-08-17T14:40:25.034Z,57.11
2022-08-17T14:42:57.766Z,57.33
2022-08-17T14:45:32.708Z,57.30
2022-08-17T14:48:05.871Z,57.25
2022-08-17T14:50:36.137Z,57.82
2022-08-17T14:53:07.034Z,57.58
2022-08-17T14:55:37.038Z,58.25
2022-08-17T14:58:07.090Z,58.57
2022-08-17T15:00:36.638Z,58.29
2022-08-17T15:03:05.897Z,58.48
2022-08-17T15:05:36.916Z,58.30
2022-08-17T15:08:07.193Z,57.93
2022-08-17T15:10:36.651Z,57.83
2022-08-17T15:13:20.032Z,57.81
2022-08-17T15:15:49.102Z,57.90
2022-08-17T15:18:17.896Z,57.51
2022-08-17T15:20:48.825Z,57.51
2022-08-17T15:23:19.909Z,57.74
2022-08-17T15:25:50.262Z,57.32
2022-08-17T15:28:22.954Z,57.31
2022-08-17T15:30:52.684Z,56.99
2022-08-17T15:33:29.301Z,56.71
2022-08-17T15:35:59.994Z,56.74
2022-08-17T15:38:29.112Z,56.68
2022-08-17T15:40:58.627Z,56.62
2022-08-17T15:43:32.614Z,56.23
2022-08-17T15:46:03.237Z,56.62
2022-08-17T15:48:42.333Z,56.23
2022-08-17T15:51:13.917Z,55.91
2022-08-17T15:53:44.205Z,56.16
2022-08-17T15:56:13.772Z,55.91
2022-08-17T15:58:45.156Z,56.27
2022-08-17T16:01:18.292Z,55.79
2022-08-17T16:04:03.905Z,56.09
2022-08-17T16:06:36.088Z,56.13
2022-08-17T16:09:04.743Z,56.04
2022-08-17T16:11:33.390Z,56.10
2022-08-17T16:14:03.633Z,56.23
2022-08-17T16:16:32.946Z,55.88
2022-08-17T16:19:01.843Z,55.87
2022-08-17T16:21:31.293Z,55.85
2022-08-17T16:24:13.626Z,55.82
2022-08-17T16:26:43.910Z,56.02
2022-08-17T16:29:13.544Z,56.14
2022-08-17T16:31:42.616Z,56.22
2022-08-17T16:34:17.799Z,55.99
2022-08-17T16:36:55.080Z,56.42
2022-08-17T16:39:25.402Z,56.40
2022-08-17T16:41:53.846Z,56.35
2022-08-17T16:44:23.969Z,56.42
2022-08-17T16:46:52.645Z,56.03
2022-08-17T16:49:35.706Z,56.31
2022-08-17T16:52:06.501Z,56.21
2022-08-17T16:54:35.679Z,56.37
2022-08-17T16:57:05.665Z,56.12
2022-08-17T16:59:42.385Z,56.24
2022-08-17T17:02:17.790Z,56.31
2022-08-17T17:04:53.712Z,56.33
2022-08-17T17:07:39.096Z,56.26
2022-08-17T17:10:12.012Z,56.37
2022-08-17T17:13:01.041Z,56.45
2022-08-17T17:15:44.742Z,56.59
2022-08-17T17:18:15.520Z,56.56
2022-08-17T17:20:53.860Z,56.83
2022-08-17T17:23:38.707Z,56.56
2022-08-17T17:26:21.412Z,56.72
2022-08-17T17:29:00.873Z,56.81
2022-08-17T17:31:38.503Z,56.79
2022-08-17T17:34:11.429Z,56.95
2022-08-17T17:36:43.386Z,56.70
2022-08-17T17:39:20.212Z,57.14
2022-08-17T17:41:53.342Z,57.29
2022-08-17T17:44:28.856Z,56.83
2022-08-17T17:47:01.211Z,57.66
2022-08-17T17:49:35.533Z,57.45
2022-08-17T17:52:18.441Z,57.44
2022-08-17T17:54:56.922Z,58.14
2022-08-17T17:57:37.194Z,57.85
2022-08-17T18:00:13.912Z,58.35
2022-08-17T18:02:57.458Z,58.25
2022-08-17T18:05:57.849Z,58.37
2022-08-17T18:08:43.185Z,58.87
2022-08-17T18:11:34.952Z,59.02
2022-08-17T18:14:18.826Z,59.32
2022-08-17T18:16:48.192Z,59.20
2022-08-17T18:19:20.864Z,59.32
2022-08-17T18:21:54.037Z,59.34
2022-08-17T18:24:31.349Z,59.12
2022-08-17T18:27:01.916Z,59.12
2022-08-17T18:29:44.522Z,58.94
2022-08-17T18:32:29.226Z,58.95
2022-08-17T18:35:02.142Z,59.02
2022-08-17T18:37:41.503Z,58.76
2022-08-17T18:40:30.462Z,58.78
2022-08-17T18:43:04.919Z,59.09
2022-08-17T18:45:40.943Z,58.80
2022-08-17T18:48:24.104Z,58.71
2022-08-17T18:50:57.212Z,59.05
2022-08-17T18:53:36.409Z,58.85
2022-08-17T18:56:22.232Z,58.72
2022-08-17T18:59:13.726Z,58.82
2022-08-17T19:01:53.459Z,58.67
2022-08-17T19:04:33.372Z,58.86
2022-08-17T19:07:08.888Z,58.60
2022-08-17T19:09:43.812Z,58.93
2022-08-17T19:12:27.128Z,58.83
2022-08-17T19:14:58.385Z,59.00
2022-08-17T19:17:35.528Z,59.02
2022-08-17T19:20:11.579Z,59.16
2022-08-17T19:23:05.332Z,58.90
2022-08-17T19:25:37.377Z,59.03
2022-08-17T19:28:15.381Z,59.05
2022-08-17T19:30:55.704Z,58.94
2022-08-17T19:33:25.280Z,59.01
2022-08-17T19:36:02.519Z,58.85
2022-08-17T19:38:42.841Z,59.05
2022-08-17T19:41:20.898Z,59.28
2022-08-17T19:44:08.003Z,58.96
2022-08-17T19:46:48.634Z,58.89
2022-08-17T19:49:33.777Z,59.11
2022-08-17T19:52:24.264Z,58.93
2022-08-17T19:55:03.206Z,58.97
2022-08-17T19:57:42.909Z,58.61
2022-08-17T20:00:15.340Z,59.02
2022-08-17T20:02:54.503Z,58.89
2022-08-17T20:05:27.109Z,59.13
2022-08-17T20:08:00.436Z,58.77
2022-08-17T20:10:40.608Z,58.67
2022-08-17T20:13:13.036Z,59.04
2022-08-17T20:15:43.956Z,58.59
2022-08-17T20:18:21.123Z,58.63
2022-08-17T20:20:57.990Z,58.77
2022-08-17T20:23:42.444Z,58.57
2022-08-17T20:26:19.726Z,58.62
2022-08-17T20:29:36.801Z,58.70
2022-08-17T20:32:15.645Z,58.55
2022-08-17T20:34:47.803Z,58.43
2022-08-17T20:37:35.310Z,58.55
2022-08-17T20:40:21.487Z,58.74
2022-08-17T20:42:51.614Z,58.64
2022-08-17T20:45:57.892Z,58.56
2022-08-17T20:48:38.448Z,58.83
2022-08-17T20:51:20.350Z,58.64
2022-08-17T20:54:16.413Z,58.62
2022-08-17T20:56:57.901Z,58.78
2022-08-17T21:00:05.746Z,58.56
2022-08-17T21:02:37.249Z,58.72
2022-08-17T21:05:30.052Z,58.49
2022-08-17T21:08:01.661Z,58.59
2022-08-17T21:10:37.724Z,58.59
2022-08-17T21:13:42.143Z,58.29
2022-08-17T21:16:35.133Z,58.31
2022-08-17T21:19:17.026Z,58.55
2022-08-17T21:22:00.070Z,58.29
2022-08-17T21:24:49.393Z,58.60
2022-08-17T21:27:30.836Z,58.65
2022-08-17T21:30:21.918Z,58.47
2022-08-17T21:33:25.274Z,58.52
2022-08-17T21:36:16.258Z,58.30
2022-08-17T21:38:57.995Z,58.36
2022-08-17T21:41:29.920Z,58.56
2022-08-17T21:44:06.590Z,58.14
2022-08-17T21:46:40.025Z,58.53
2022-08-17T21:49:13.732Z,58.81
2022-08-17T21:54:35.817Z,58.07
2022-08-17T21:57:06.975Z,58.56
2022-08-17T21:59:39.423Z,58.35
2022-08-17T22:02:10.301Z,58.31
2022-08-17T22:04:41.126Z,58.26
2022-08-17T22:07:11.957Z,58.28
2022-08-17T22:09:45.999Z,58.34
2022-08-17T22:12:18.340Z,58.36
2022-08-17T22:14:57.581Z,58.37
2022-08-17T22:17:27.926Z,58.25
2022-08-17T22:19:59.893Z,58.16
2022-08-17T22:22:55.977Z,58.10
2022-08-17T22:25:27.502Z,58.20
2022-08-17T22:28:00.256Z,58.16
2022-08-17T22:30:35.144Z,58.21
2022-08-17T22:33:39.769Z,58.19
2022-08-17T22:36:29.237Z,58.21
2022-08-17T22:39:00.186Z,58.23
2022-08-17T22:41:42.342Z,58.46
2022-08-17T22:44:24.570Z,58.53
2022-08-17T22:47:00.193Z,58.08
2022-08-17T22:49:36.734Z,58.00
2022-08-17T22:52:18.711Z,57.99
2022-08-17T22:55:09.222Z,58.20
2022-08-17T22:58:04.286Z,58.20
2022-08-17T23:00:37.627Z,58.11
2022-08-17T23:03:16.353Z,58.17
2022-08-17T23:05:47.703Z,58.10
2022-08-17T23:08:21.438Z,58.15
2022-08-17T23:10:50.382Z,57.86
2022-08-17T23:13:18.928Z,57.89
2022-08-17T23:15:48.321Z,57.86
2022-08-17T23:18:17.661Z,57.71
2022-08-17T23:20:47.993Z,57.56
2022-08-17T23:23:18.793Z,57.61
2022-08-17T23:25:50.918Z,57.76
2022-08-17T23:28:20.212Z,57.36
2022-08-17T23:30:49.366Z,57.95
2022-08-17T23:33:21.929Z,57.49
2022-08-17T23:35:52.151Z,57.39
2022-08-17T23:38:20.792Z,57.17
2022-08-17T23:40:49.421Z,57.66
2022-08-17T23:43:25.284Z,57.39
2022-08-17T23:45:57.648Z,57.37
2022-08-17T23:48:36.089Z,57.18
2022-08-17T23:51:12.127Z,57.47
2022-08-17T23:53:44.236Z,57.18
2022-08-17T23:56:12.849Z,57.08
2022-08-17T23:58:43.330Z,57.26
